sensor_id;sensor_type;location;lat;lon;timestamp;pressure;altitude;pressure_sealevel;temperature;humidity
62697;BME280;48761;42.680;23.312;2024-01-15T00:00:59;94231.84;;;-0.56;71.67
62697;BME280;48761;42.680;23.312;2024-01-15T00:03:25;94229.19;;;-1.06;73.49
62697;BME280;48761;42.680;23.312;2024-01-15T00:05:51;94250.28;;;-1.12;74.61
62697;BME280;48761;42.680;23.312;2024-01-15T00:08:17;94226.84;;;-0.88;74.26
62697;BME280;48761;42.680;23.312;2024-01-15T00:10:43;94240.81;;;-0.63;72.91
62697;BME280;48761;42.680;23.312;2024-01-15T00:13:09;94231.25;;;-1.14;75.22
62697;BME280;48761;42.680;23.312;2024-01-15T00:15:35;94230.75;;;-0.74;73.81
62697;BME280;48761;42.680;23.312;2024-01-15T00:18:00;94218.41;;;-0.71;74.44
62697;BME280;48761;42.680;23.312;2024-01-15T00:20:26;94222.38;;;-1.36;75.48
62697;BME280;48761;42.680;23.312;2024-01-15T00:22:52;94233.81;;;-1.40;76.41
62697;BME280;48761;42.680;23.312;2024-01-15T00:25:18;94205.88;;;-1.90;77.59
62697;BME280;48761;42.680;23.312;2024-01-15T00:27:44;94225.31;;;-1.19;76.22
62697;BME280;48761;42.680;23.312;2024-01-15T00:30:10;94231.94;;;-1.09;75.59
62697;BME280;48761;42.680;23.312;2024-01-15T00:32:36;94231.00;;;-0.82;74.52
62697;BME280;48761;42.680;23.312;2024-01-15T00:35:02;94233.25;;;-0.71;74.02
62697;BME280;48761;42.680;23.312;2024-01-15T00:37:28;94220.38;;;-0.76;73.93
62697;BME280;48761;42.680;23.312;2024-01-15T00:39:54;94226.97;;;-1.17;75.32
62697;BME280;48761;42.680;23.312;2024-01-15T00:42:20;94225.28;;;-0.92;74.00
62697;BME280;48761;42.680;23.312;2024-01-15T00:44:46;94233.25;;;-0.71;73.75
62697;BME280;48761;42.680;23.312;2024-01-15T00:47:12;94233.13;;;-0.68;73.09
62697;BME280;48761;42.680;23.312;2024-01-15T00:49:38;94235.72;;;-0.68;73.09
62697;BME280;48761;42.680;23.312;2024-01-15T00:52:04;94239.09;;;-0.64;72.39
62697;BME280;48761;42.680;23.312;2024-01-15T00:54:30;94224.59;;;-0.73;72.27
62697;BME280;48761;42.680;23.312;2024-01-15T00:56:56;94228.75;;;-0.68;72.13
62697;BME280;48761;42.680;23.312;2024-01-15T00:59:22;94222.28;;;-0.81;72.23
62697;BME280;48761;42.680;23.312;2024-01-15T01:01:48;94230.06;;;-0.80;71.98
62697;BME280;48761;42.680;23.312;2024-01-15T01:04:13;94207.69;;;-0.87;71.77
62697;BME280;48761;42.680;23.312;2024-01-15T01:06:39;94231.44;;;-0.69;71.87
62697;BME280;48761;42.680;23.312;2024-01-15T01:09:05;94228.81;;;-0.69;71.96
62697;BME280;48761;42.680;23.312;2024-01-15T01:11:31;94223.81;;;-0.75;71.50
62697;BME280;48761;42.680;23.312;2024-01-15T01:13:57;94221.94;;;-0.72;71.26
62697;BME280;48761;42.680;23.312;2024-01-15T01:16:23;94232.81;;;-0.59;71.12
62697;BME280;48761;42.680;23.312;2024-01-15T01:18:49;94223.78;;;-0.74;71.16
62697;BME280;48761;42.680;23.312;2024-01-15T01:21:15;94214.28;;;-0.76;71.41
62697;BME280;48761;42.680;23.312;2024-01-15T01:23:41;94215.41;;;-0.84;71.59
62697;BME280;48761;42.680;23.312;2024-01-15T01:26:07;94203.50;;;-0.91;71.50
62697;BME280;48761;42.680;23.312;2024-01-15T01:28:33;94169.06;;;-1.27;71.84
62697;BME280;48761;42.680;23.312;2024-01-15T01:30:59;94201.00;;;-0.94;71.65
62697;BME280;48761;42.680;23.312;2024-01-15T01:33:25;94211.69;;;-0.76;71.22
62697;BME280;48761;42.680;23.312;2024-01-15T01:35:51;94200.13;;;-0.95;71.80
62697;BME280;48761;42.680;23.312;2024-01-15T01:38:17;94199.94;;;-1.14;72.44
62697;BME280;48761;42.680;23.312;2024-01-15T01:40:43;94195.28;;;-1.06;72.72
62697;BME280;48761;42.680;23.312;2024-01-15T01:43:09;94192.81;;;-1.09;72.66
62697;BME280;48761;42.680;23.312;2024-01-15T01:45:35;94198.63;;;-1.28;73.26
62697;BME280;48761;42.680;23.312;2024-01-15T01:48:01;94186.38;;;-1.26;73.34
62697;BME280;48761;42.680;23.312;2024-01-15T01:50:31;94195.66;;;-0.91;72.24
62697;BME280;48761;42.680;23.312;2024-01-15T01:52:57;94199.84;;;-0.87;71.49
62697;BME280;48761;42.680;23.312;2024-01-15T01:55:24;94193.59;;;-1.07;72.70
62697;BME280;48761;42.680;23.312;2024-01-15T01:57:52;94192.31;;;-1.20;73.49
62697;BME280;48761;42.680;23.312;2024-01-15T02:00:18;94170.19;;;-1.34;73.73
62697;BME280;48761;42.680;23.312;2024-01-15T02:02:45;94185.81;;;-1.34;74.64
62697;BME280;48761;42.680;23.312;2024-01-15T02:05:12;94174.78;;;-1.42;74.58
62697;BME280;48761;42.680;23.312;2024-01-15T02:07:40;94151.91;;;-1.34;73.88
62697;BME280;48761;42.680;23.312;2024-01-15T02:10:06;94183.03;;;-1.04;73.31
62697;BME280;48761;42.680;23.312;2024-01-15T02:12:32;94176.97;;;-1.04;72.71
62697;BME280;48761;42.680;23.312;2024-01-15T02:14:58;94144.91;;;-1.33;73.02
62697;BME280;48761;42.680;23.312;2024-01-15T02:17:25;94146.75;;;-1.36;73.18
62697;BME280;48761;42.680;23.312;2024-01-15T02:19:50;94163.41;;;-1.14;72.66
62697;BME280;48761;42.680;23.312;2024-01-15T02:22:16;94154.66;;;-1.13;72.88
62697;BME280;48761;42.680;23.312;2024-01-15T02:24:42;94153.31;;;-0.99;72.04
62697;BME280;48761;42.680;23.312;2024-01-15T02:27:08;94124.63;;;-0.99;71.75
62697;BME280;48761;42.680;23.312;2024-01-15T02:29:35;94117.06;;;-1.84;76.99
62697;BME280;48761;42.680;23.312;2024-01-15T02:32:04;94109.66;;;-1.70;76.43
62697;BME280;48761;42.680;23.312;2024-01-15T02:34:34;94107.75;;;-1.64;76.12
62697;BME280;48761;42.680;23.312;2024-01-15T02:37:00;94095.50;;;-1.62;75.97
62697;BME280;48761;42.680;23.312;2024-01-15T02:39:26;94126.47;;;-1.27;74.47
62697;BME280;48761;42.680;23.312;2024-01-15T02:41:52;94110.28;;;-1.37;74.41
62697;BME280;48761;42.680;23.312;2024-01-15T02:44:17;94115.81;;;-1.21;73.84
62697;BME280;48761;42.680;23.312;2024-01-15T02:46:43;94120.81;;;-1.15;73.83
62697;BME280;48761;42.680;23.312;2024-01-15T02:49:09;94114.19;;;-0.99;72.98
62697;BME280;48761;42.680;23.312;2024-01-15T02:51:35;94120.81;;;-1.15;73.19
62697;BME280;48761;42.680;23.312;2024-01-15T02:54:02;94117.34;;;-1.41;73.65
62697;BME280;48761;42.680;23.312;2024-01-15T02:56:27;94109.19;;;-1.31;74.59
62697;BME280;48761;42.680;23.312;2024-01-15T02:58:53;94111.09;;;-1.35;73.80
62697;BME280;48761;42.680;23.312;2024-01-15T03:01:19;94113.25;;;-1.22;73.65
62697;BME280;48761;42.680;23.312;2024-01-15T03:03:45;94063.56;;;-1.43;73.48
62697;BME280;48761;42.680;23.312;2024-01-15T03:06:11;94114.72;;;-1.15;73.58
62697;BME280;48761;42.680;23.312;2024-01-15T03:08:37;94124.16;;;-1.11;73.49
62697;BME280;48761;42.680;23.312;2024-01-15T03:11:04;94116.03;;;-1.27;72.37
62697;BME280;48761;42.680;23.312;2024-01-15T03:13:30;94100.91;;;-1.69;74.51
62697;BME280;48761;42.680;23.312;2024-01-15T03:15:56;94101.84;;;-1.70;75.09
62697;BME280;48761;42.680;23.312;2024-01-15T03:18:22;94105.81;;;-1.59;75.87
62697;BME280;48761;42.680;23.312;2024-01-15T03:20:48;94105.94;;;-1.62;75.64
62697;BME280;48761;42.680;23.312;2024-01-15T03:23:14;94109.75;;;-1.47;75.97
62697;BME280;48761;42.680;23.312;2024-01-15T03:25:40;94081.13;;;-1.49;74.83
62697;BME280;48761;42.680;23.312;2024-01-15T03:28:06;94096.75;;;-1.74;76.80
62697;BME280;48761;42.680;23.312;2024-01-15T03:30:32;94063.31;;;-2.14;77.56
62697;BME280;48761;42.680;23.312;2024-01-15T03:32:57;94092.91;;;-2.15;78.54
62697;BME280;48761;42.680;23.312;2024-01-15T03:35:23;94066.88;;;-2.44;79.16
62697;BME280;48761;42.680;23.312;2024-01-15T03:37:49;94086.03;;;-2.18;79.10
62697;BME280;48761;42.680;23.312;2024-01-15T03:40:15;94098.44;;;-2.26;78.82
62697;BME280;48761;42.680;23.312;2024-01-15T03:42:41;94090.72;;;-2.29;78.59
62697;BME280;48761;42.680;23.312;2024-01-15T03:45:07;94081.81;;;-1.95;77.81
62697;BME280;48761;42.680;23.312;2024-01-15T03:47:33;94086.66;;;-1.84;77.65
62697;BME280;48761;42.680;23.312;2024-01-15T03:49:59;94091.25;;;-2.18;78.26
62697;BME280;48761;42.680;23.312;2024-01-15T03:52:25;94084.38;;;-2.20;79.54
62697;BME280;48761;42.680;23.312;2024-01-15T03:54:51;94060.63;;;-2.67;80.08
62697;BME280;48761;42.680;23.312;2024-01-15T03:57:17;94088.41;;;-1.84;77.75
62697;BME280;48761;42.680;23.312;2024-01-15T03:59:43;94088.06;;;-1.48;76.34
62697;BME280;48761;42.680;23.312;2024-01-15T04:02:09;94093.69;;;-1.60;76.75
62697;BME280;48761;42.680;23.312;2024-01-15T04:04:35;94070.34;;;-1.63;76.49
62697;BME280;48761;42.680;23.312;2024-01-15T04:07:01;94071.38;;;-1.69;76.59
62697;BME280;48761;42.680;23.312;2024-01-15T04:09:26;94031.56;;;-1.73;74.84
62697;BME280;48761;42.680;23.312;2024-01-15T04:11:52;94067.81;;;-1.41;74.87
62697;BME280;48761;42.680;23.312;2024-01-15T04:14:18;94075.91;;;-2.00;75.85
62697;BME280;48761;42.680;23.312;2024-01-15T04:16:44;94070.16;;;-1.84;76.44
62697;BME280;48761;42.680;23.312;2024-01-15T04:19:10;94078.22;;;-1.65;76.15
62697;BME280;48761;42.680;23.312;2024-01-15T04:21:36;94070.69;;;-1.49;74.88
62697;BME280;48761;42.680;23.312;2024-01-15T04:24:02;94053.03;;;-1.40;74.48
62697;BME280;48761;42.680;23.312;2024-01-15T04:26:28;94057.22;;;-1.62;74.51
62697;BME280;48761;42.680;23.312;2024-01-15T04:28:54;94031.03;;;-2.08;75.71
62697;BME280;48761;42.680;23.312;2024-01-15T04:31:24;94074.00;;;-1.43;74.80
62697;BME280;48761;42.680;23.312;2024-01-15T04:33:50;94067.66;;;-1.36;74.53
62697;BME280;48761;42.680;23.312;2024-01-15T04:36:16;94075.19;;;-1.28;74.25
62697;BME280;48761;42.680;23.312;2024-01-15T04:38:42;94060.56;;;-1.32;74.45
62697;BME280;48761;42.680;23.312;2024-01-15T04:41:16;94072.38;;;-1.22;74.17
62697;BME280;48761;42.680;23.312;2024-01-15T04:43:42;94066.41;;;-1.50;74.49
62697;BME280;48761;42.680;23.312;2024-01-15T04:46:08;94063.69;;;-1.22;74.49
62697;BME280;48761;42.680;23.312;2024-01-15T04:48:34;94052.47;;;-1.25;73.73
62697;BME280;48761;42.680;23.312;2024-01-15T04:51:00;94051.69;;;-1.27;74.07
62697;BME280;48761;42.680;23.312;2024-01-15T04:53:26;94058.59;;;-1.26;74.18
62697;BME280;48761;42.680;23.312;2024-01-15T04:55:52;94043.72;;;-1.48;74.36
62697;BME280;48761;42.680;23.312;2024-01-15T04:58:18;94048.63;;;-1.64;75.36
62697;BME280;48761;42.680;23.312;2024-01-15T05:00:43;94039.13;;;-1.65;75.45
62697;BME280;48761;42.680;23.312;2024-01-15T05:03:09;94038.84;;;-1.57;75.66
62697;BME280;48761;42.680;23.312;2024-01-15T05:05:35;94051.50;;;-1.72;76.39
62697;BME280;48761;42.680;23.312;2024-01-15T05:08:01;94058.25;;;-1.92;77.33
62697;BME280;48761;42.680;23.312;2024-01-15T05:10:27;94050.25;;;-1.87;77.03
62697;BME280;48761;42.680;23.312;2024-01-15T05:12:53;94035.56;;;-1.62;77.02
62697;BME280;48761;42.680;23.312;2024-01-15T05:15:19;94023.47;;;-1.90;77.23
62697;BME280;48761;42.680;23.312;2024-01-15T05:17:45;94030.50;;;-1.93;77.17
62697;BME280;48761;42.680;23.312;2024-01-15T05:20:11;94032.88;;;-1.86;77.55
62697;BME280;48761;42.680;23.312;2024-01-15T05:22:37;94037.41;;;-1.66;77.18
62697;BME280;48761;42.680;23.312;2024-01-15T05:25:03;94043.81;;;-1.51;76.81
62697;BME280;48761;42.680;23.312;2024-01-15T05:27:29;94017.50;;;-1.69;76.37
62697;BME280;48761;42.680;23.312;2024-01-15T05:29:55;94038.84;;;-1.33;75.89
62697;BME280;48761;42.680;23.312;2024-01-15T05:32:21;94038.97;;;-1.36;75.93
62697;BME280;48761;42.680;23.312;2024-01-15T05:34:47;94028.03;;;-1.72;76.93
62697;BME280;48761;42.680;23.312;2024-01-15T05:37:13;94033.03;;;-1.65;77.47
62697;BME280;48761;42.680;23.312;2024-01-15T05:39:39;94031.09;;;-1.34;76.33
62697;BME280;48761;42.680;23.312;2024-01-15T05:42:05;94033.28;;;-1.24;75.87
62697;BME280;48761;42.680;23.312;2024-01-15T05:44:31;94031.81;;;-1.31;75.38
62697;BME280;48761;42.680;23.312;2024-01-15T05:46:57;94025.63;;;-1.28;75.61
62697;BME280;48761;42.680;23.312;2024-01-15T05:49:22;94024.06;;;-1.82;76.84
62697;BME280;48761;42.680;23.312;2024-01-15T05:51:48;94019.66;;;-1.80;77.07
62697;BME280;48761;42.680;23.312;2024-01-15T05:54:14;94006.59;;;-1.54;76.52
62697;BME280;48761;42.680;23.312;2024-01-15T05:56:40;93991.81;;;-1.30;76.52
62697;BME280;48761;42.680;23.312;2024-01-15T05:59:06;93987.56;;;-1.32;76.32
62697;BME280;48761;42.680;23.312;2024-01-15T06:01:32;94008.91;;;-1.22;76.02
62697;BME280;48761;42.680;23.312;2024-01-15T06:03:58;94011.41;;;-1.43;76.71
62697;BME280;48761;42.680;23.312;2024-01-15T06:06:24;94028.00;;;-1.46;77.08
62697;BME280;48761;42.680;23.312;2024-01-15T06:08:50;94015.16;;;-2.02;78.65
62697;BME280;48761;42.680;23.312;2024-01-15T06:11:16;94013.06;;;-1.90;78.65
62697;BME280;48761;42.680;23.312;2024-01-15T06:13:41;94026.19;;;-1.94;79.53
62697;BME280;48761;42.680;23.312;2024-01-15T06:16:14;94022.88;;;-1.99;79.78
62697;BME280;48761;42.680;23.312;2024-01-15T06:18:40;94016.81;;;-2.25;80.95
62697;BME280;48761;42.680;23.312;2024-01-15T06:21:06;93994.06;;;-1.69;79.50
62697;BME280;48761;42.680;23.312;2024-01-15T06:23:32;94003.59;;;-1.19;77.80
62697;BME280;48761;42.680;23.312;2024-01-15T06:25:58;94006.41;;;-1.02;77.93
62697;BME280;48761;42.680;23.312;2024-01-15T06:28:24;93983.25;;;-0.87;76.67
62697;BME280;48761;42.680;23.312;2024-01-15T06:30:50;94012.38;;;-0.75;75.91
62697;BME280;48761;42.680;23.312;2024-01-15T06:33:16;93993.72;;;-0.88;76.00
62697;BME280;48761;42.680;23.312;2024-01-15T06:35:42;94021.13;;;-0.76;76.16
62697;BME280;48761;42.680;23.312;2024-01-15T06:38:08;94015.75;;;-0.73;76.22
62697;BME280;48761;42.680;23.312;2024-01-15T06:40:33;94009.75;;;-0.75;75.78
62697;BME280;48761;42.680;23.312;2024-01-15T06:42:59;94004.22;;;-0.45;76.32
62697;BME280;48761;42.680;23.312;2024-01-15T06:45:25;94011.13;;;-0.21;74.85
62697;BME280;48761;42.680;23.312;2024-01-15T06:47:51;94010.59;;;-0.52;76.03
62697;BME280;48761;42.680;23.312;2024-01-15T06:50:17;94017.84;;;-0.37;75.42
62697;BME280;48761;42.680;23.312;2024-01-15T06:52:43;94013.81;;;-0.23;74.72
62697;BME280;48761;42.680;23.312;2024-01-15T06:55:09;93988.06;;;-0.32;74.55
62697;BME280;48761;42.680;23.312;2024-01-15T06:57:35;94010.16;;;-0.19;74.54
62697;BME280;48761;42.680;23.312;2024-01-15T07:00:01;94019.63;;;-0.16;74.17
62697;BME280;48761;42.680;23.312;2024-01-15T07:02:27;94019.97;;;-0.69;76.25
62697;BME280;48761;42.680;23.312;2024-01-15T07:04:53;94020.38;;;-0.35;76.03
62697;BME280;48761;42.680;23.312;2024-01-15T07:07:19;94032.28;;;-0.50;75.97
62697;BME280;48761;42.680;23.312;2024-01-15T07:09:45;94033.88;;;-0.46;76.21
62697;BME280;48761;42.680;23.312;2024-01-15T07:12:11;94032.59;;;-0.58;75.84
62697;BME280;48761;42.680;23.312;2024-01-15T07:14:36;94034.03;;;-0.73;77.23
62697;BME280;48761;42.680;23.312;2024-01-15T07:17:03;94018.22;;;-0.46;75.88
62697;BME280;48761;42.680;23.312;2024-01-15T07:19:28;94036.50;;;-0.25;74.89
62697;BME280;48761;42.680;23.312;2024-01-15T07:21:54;94005.16;;;-1.15;76.96
62697;BME280;48761;42.680;23.312;2024-01-15T07:24:20;94034.28;;;-0.80;77.73
62697;BME280;48761;42.680;23.312;2024-01-15T07:26:46;94015.28;;;-0.83;76.99
62697;BME280;48761;42.680;23.312;2024-01-15T07:29:12;94019.50;;;-1.03;78.26
62697;BME280;48761;42.680;23.312;2024-01-15T07:31:38;94005.69;;;-0.83;77.10
62697;BME280;48761;42.680;23.312;2024-01-15T07:34:04;93986.34;;;-1.24;79.14
62697;BME280;48761;42.680;23.312;2024-01-15T07:36:30;94001.63;;;-0.90;78.64
62697;BME280;48761;42.680;23.312;2024-01-15T07:38:56;94017.25;;;-0.66;77.83
62697;BME280;48761;42.680;23.312;2024-01-15T07:41:22;94006.28;;;-0.98;79.34
62697;BME280;48761;42.680;23.312;2024-01-15T07:43:48;94008.97;;;-1.00;78.38
62697;BME280;48761;42.680;23.312;2024-01-15T07:46:14;94014.44;;;-1.06;79.86
62697;BME280;48761;42.680;23.312;2024-01-15T07:48:40;94026.72;;;-0.63;78.72
62697;BME280;48761;42.680;23.312;2024-01-15T07:51:09;94008.25;;;-0.59;77.00
62697;BME280;48761;42.680;23.312;2024-01-15T07:53:35;94030.59;;;-0.74;77.84
62697;BME280;48761;42.680;23.312;2024-01-15T07:56:04;93996.41;;;-0.68;77.05
62697;BME280;48761;42.680;23.312;2024-01-15T07:58:31;94017.72;;;-0.78;76.53
62697;BME280;48761;42.680;23.312;2024-01-15T08:00:57;93975.03;;;-0.77;76.10
62697;BME280;48761;42.680;23.312;2024-01-15T08:03:23;93981.97;;;-0.99;76.15
62697;BME280;48761;42.680;23.312;2024-01-15T08:05:49;93981.94;;;-1.45;77.73
62697;BME280;48761;42.680;23.312;2024-01-15T08:08:15;93994.94;;;-0.75;76.94
62697;BME280;48761;42.680;23.312;2024-01-15T08:10:41;94003.81;;;-0.79;77.61
62697;BME280;48761;42.680;23.312;2024-01-15T08:13:06;94023.56;;;-0.72;77.71
62697;BME280;48761;42.680;23.312;2024-01-15T08:15:32;93999.63;;;-0.83;77.13
62697;BME280;48761;42.680;23.312;2024-01-15T08:17:58;94019.03;;;-0.68;76.59
62697;BME280;48761;42.680;23.312;2024-01-15T08:20:24;94020.38;;;-0.58;75.66
62697;BME280;48761;42.680;23.312;2024-01-15T08:22:53;94018.34;;;-0.72;75.81
62697;BME280;48761;42.680;23.312;2024-01-15T08:25:19;93992.94;;;-0.68;75.22
62697;BME280;48761;42.680;23.312;2024-01-15T08:27:45;94021.22;;;-0.35;74.85
62697;BME280;48761;42.680;23.312;2024-01-15T08:30:11;94031.78;;;-0.38;74.43
62697;BME280;48761;42.680;23.312;2024-01-15T08:32:37;94017.59;;;-0.53;75.45
62697;BME280;48761;42.680;23.312;2024-01-15T08:35:03;94003.22;;;-0.41;75.11
62697;BME280;48761;42.680;23.312;2024-01-15T08:37:29;93994.41;;;-0.17;74.42
62697;BME280;48761;42.680;23.312;2024-01-15T08:39:55;93975.53;;;0.18;72.74
62697;BME280;48761;42.680;23.312;2024-01-15T08:42:21;93992.38;;;0.31;72.98
62697;BME280;48761;42.680;23.312;2024-01-15T08:44:47;93983.78;;;0.49;71.83
62697;BME280;48761;42.680;23.312;2024-01-15T08:47:13;93976.44;;;0.38;72.19
62697;BME280;48761;42.680;23.312;2024-01-15T08:49:39;93962.09;;;0.47;71.40
62697;BME280;48761;42.680;23.312;2024-01-15T08:52:05;93990.31;;;0.78;71.62
62697;BME280;48761;42.680;23.312;2024-01-15T08:54:30;93972.75;;;0.42;71.80
62697;BME280;48761;42.680;23.312;2024-01-15T08:56:57;93976.31;;;0.20;72.96
62697;BME280;48761;42.680;23.312;2024-01-15T08:59:22;93986.09;;;0.36;73.83
62697;BME280;48761;42.680;23.312;2024-01-15T09:01:48;93966.78;;;0.78;71.67
62697;BME280;48761;42.680;23.312;2024-01-15T09:04:14;93955.66;;;0.35;72.27
62697;BME280;48761;42.680;23.312;2024-01-15T09:06:44;93930.91;;;0.42;71.88
62697;BME280;48761;42.680;23.312;2024-01-15T09:09:10;93959.28;;;0.30;72.27
62697;BME280;48761;42.680;23.312;2024-01-15T09:11:36;93939.78;;;0.18;73.03
62697;BME280;48761;42.680;23.312;2024-01-15T09:14:02;93923.09;;;0.21;72.79
62697;BME280;48761;42.680;23.312;2024-01-15T09:16:28;93917.34;;;0.33;72.16
62697;BME280;48761;42.680;23.312;2024-01-15T09:18:54;93912.75;;;0.39;71.77
62697;BME280;48761;42.680;23.312;2024-01-15T09:21:20;93896.19;;;0.38;72.21
62697;BME280;48761;42.680;23.312;2024-01-15T09:23:46;93912.53;;;0.43;72.25
62697;BME280;48761;42.680;23.312;2024-01-15T09:26:12;93900.69;;;0.55;71.42
62697;BME280;48761;42.680;23.312;2024-01-15T09:28:38;93881.44;;;0.57;71.50
62697;BME280;48761;42.680;23.312;2024-01-15T09:31:04;93899.28;;;1.05;70.14
62697;BME280;48761;42.680;23.312;2024-01-15T09:33:30;93889.34;;;0.74;69.83
62697;BME280;48761;42.680;23.312;2024-01-15T09:35:56;93878.06;;;0.54;70.56
62697;BME280;48761;42.680;23.312;2024-01-15T09:38:22;93902.78;;;0.66;71.95
62697;BME280;48761;42.680;23.312;2024-01-15T09:40:48;93865.75;;;0.37;72.69
62697;BME280;48761;42.680;23.312;2024-01-15T09:43:15;93874.53;;;0.55;72.15
62697;BME280;48761;42.680;23.312;2024-01-15T09:45:42;93877.53;;;0.46;72.96
62697;BME280;48761;42.680;23.312;2024-01-15T09:48:09;93870.53;;;0.85;73.57
62697;BME280;48761;42.680;23.312;2024-01-15T09:50:35;93836.97;;;0.57;72.57
62697;BME280;48761;42.680;23.312;2024-01-15T09:53:01;93863.31;;;0.71;72.78
62697;BME280;48761;42.680;23.312;2024-01-15T09:55:28;93829.66;;;0.63;72.19
62697;BME280;48761;42.680;23.312;2024-01-15T09:57:55;93843.84;;;1.14;72.08
62697;BME280;48761;42.680;23.312;2024-01-15T10:00:22;93830.13;;;1.09;71.42
62697;BME280;48761;42.680;23.312;2024-01-15T10:02:48;93839.22;;;1.73;70.29
62697;BME280;48761;42.680;23.312;2024-01-15T10:05:15;93851.09;;;1.80;69.73
62697;BME280;48761;42.680;23.312;2024-01-15T10:07:41;93848.00;;;1.89;67.99
62697;BME280;48761;42.680;23.312;2024-01-15T10:10:08;93819.22;;;2.22;67.77
62697;BME280;48761;42.680;23.312;2024-01-15T10:12:34;93829.06;;;2.34;67.32
62697;BME280;48761;42.680;23.312;2024-01-15T10:15:01;93818.56;;;2.34;66.30
62697;BME280;48761;42.680;23.312;2024-01-15T10:17:27;93784.09;;;2.41;65.68
62697;BME280;48761;42.680;23.312;2024-01-15T10:19:53;93791.78;;;2.76;64.24
62697;BME280;48761;42.680;23.312;2024-01-15T10:22:19;93818.69;;;2.96;63.28
62697;BME280;48761;42.680;23.312;2024-01-15T10:24:46;93761.88;;;3.26;61.62
62697;BME280;48761;42.680;23.312;2024-01-15T10:27:15;93778.03;;;3.49;62.33
62697;BME280;48761;42.680;23.312;2024-01-15T10:29:42;93767.00;;;3.13;60.82
62697;BME280;48761;42.680;23.312;2024-01-15T10:32:08;93761.47;;;3.63;60.32
62697;BME280;48761;42.680;23.312;2024-01-15T10:34:37;93782.22;;;3.83;60.35
62697;BME280;48761;42.680;23.312;2024-01-15T10:37:09;93770.09;;;3.80;58.87
62697;BME280;48761;42.680;23.312;2024-01-15T10:39:36;93761.75;;;3.58;59.81
62697;BME280;48761;42.680;23.312;2024-01-15T10:42:02;93782.50;;;3.78;59.43
62697;BME280;48761;42.680;23.312;2024-01-15T10:44:29;93783.81;;;3.56;58.92
62697;BME280;48761;42.680;23.312;2024-01-15T10:46:59;93763.75;;;3.84;58.22
62697;BME280;48761;42.680;23.312;2024-01-15T10:49:26;93755.63;;;3.58;58.79
62697;BME280;48761;42.680;23.312;2024-01-15T10:51:52;93765.56;;;3.38;58.87
62697;BME280;48761;42.680;23.312;2024-01-15T10:54:19;93753.28;;;3.08;60.46
62697;BME280;48761;42.680;23.312;2024-01-15T10:56:47;93762.63;;;2.97;61.23
62697;BME280;48761;42.680;23.312;2024-01-15T10:59:13;93744.06;;;2.53;62.02
62697;BME280;48761;42.680;23.312;2024-01-15T11:01:42;93753.44;;;2.90;61.27
62697;BME280;48761;42.680;23.312;2024-01-15T11:04:09;93711.06;;;2.65;61.62
62697;BME280;48761;42.680;23.312;2024-01-15T11:06:45;93727.94;;;2.92;61.52
62697;BME280;48761;42.680;23.312;2024-01-15T11:09:14;93731.91;;;3.14;60.44
62697;BME280;48761;42.680;23.312;2024-01-15T11:11:41;93725.59;;;3.33;60.64
62697;BME280;48761;42.680;23.312;2024-01-15T11:14:07;93721.19;;;3.63;58.65
62697;BME280;48761;42.680;23.312;2024-01-15T11:17:03;93693.50;;;3.42;60.02
62697;BME280;48761;42.680;23.312;2024-01-15T11:22:09;93714.31;;;3.89;58.82
62697;BME280;48761;42.680;23.312;2024-01-15T11:24:40;93733.41;;;4.35;58.36
62697;BME280;48761;42.680;23.312;2024-01-15T11:27:07;93735.50;;;4.30;57.68
62697;BME280;48761;42.680;23.312;2024-01-15T11:29:36;93709.41;;;4.27;56.98
62697;BME280;48761;42.680;23.312;2024-01-15T11:32:06;93724.25;;;4.13;58.07
62697;BME280;48761;42.680;23.312;2024-01-15T11:35:09;93729.06;;;4.07;58.10
62697;BME280;48761;42.680;23.312;2024-01-15T11:40:20;93681.66;;;3.94;57.76
62697;BME280;48761;42.680;23.312;2024-01-15T11:42:48;93716.56;;;4.10;57.94
62697;BME280;48761;42.680;23.312;2024-01-15T11:45:19;93679.78;;;3.37;58.79
62697;BME280;48761;42.680;23.312;2024-01-15T11:50:30;93716.97;;;3.60;59.36
62697;BME280;48761;42.680;23.312;2024-01-15T11:53:02;93696.88;;;3.59;59.78
62697;BME280;48761;42.680;23.312;2024-01-15T11:55:34;93682.69;;;3.47;59.33
62697;BME280;48761;42.680;23.312;2024-01-15T11:58:01;93683.91;;;3.70;58.53
62697;BME280;48761;42.680;23.312;2024-01-15T12:00:28;93678.19;;;3.49;59.17
62697;BME280;48761;42.680;23.312;2024-01-15T12:02:54;93694.63;;;3.23;60.50
62697;BME280;48761;42.680;23.312;2024-01-15T12:05:20;93688.97;;;3.30;60.27
62697;BME280;48761;42.680;23.312;2024-01-15T12:07:48;93680.81;;;3.34;60.50
62697;BME280;48761;42.680;23.312;2024-01-15T12:10:19;93662.88;;;3.27;60.99
62697;BME280;48761;42.680;23.312;2024-01-15T12:15:17;93680.06;;;3.47;60.80
62697;BME280;48761;42.680;23.312;2024-01-15T12:17:43;93644.44;;;4.00;59.19
62697;BME280;48761;42.680;23.312;2024-01-15T12:20:10;93653.44;;;3.53;60.60
62697;BME280;48761;42.680;23.312;2024-01-15T12:22:36;93672.88;;;3.36;62.23
62697;BME280;48761;42.680;23.312;2024-01-15T12:25:02;93658.97;;;3.63;60.90
62697;BME280;48761;42.680;23.312;2024-01-15T12:27:28;93634.03;;;3.41;61.15
62697;BME280;48761;42.680;23.312;2024-01-15T12:29:55;93676.63;;;3.61;61.51
62697;BME280;48761;42.680;23.312;2024-01-15T12:32:23;93661.78;;;3.60;62.04
62697;BME280;48761;42.680;23.312;2024-01-15T12:34:50;93651.28;;;3.45;61.49
62697;BME280;48761;42.680;23.312;2024-01-15T12:37:19;93651.09;;;3.49;62.19
62697;BME280;48761;42.680;23.312;2024-01-15T12:39:45;93644.53;;;3.41;61.79
62697;BME280;48761;42.680;23.312;2024-01-15T12:42:16;93617.50;;;3.24;61.58
62697;BME280;48761;42.680;23.312;2024-01-15T12:44:42;93614.50;;;3.45;61.58
62697;BME280;48761;42.680;23.312;2024-01-15T12:47:11;93632.88;;;3.45;61.91
62697;BME280;48761;42.680;23.312;2024-01-15T12:49:38;93645.63;;;3.52;61.59
62697;BME280;48761;42.680;23.312;2024-01-15T12:52:08;93642.16;;;3.36;61.87
62697;BME280;48761;42.680;23.312;2024-01-15T12:54:34;93644.13;;;3.47;62.60
62697;BME280;48761;42.680;23.312;2024-01-15T12:57:00;93632.28;;;3.69;62.13
62697;BME280;48761;42.680;23.312;2024-01-15T12:59:26;93615.41;;;3.44;62.67